Time;durP1;ratioP1;P1;durP2;ratioP2;P2;SDS_P1;SDS_P2;PMS_P1;PMS_P2;Temp;Humidity;BMP_temperature;BMP_pressure;BME280_temperature;BME280_humidity;BME280_pressure;Samples;Min_cycle;Max_cycle;Signal;HPM_P1;HPM_P2
2021/08/03 00:02:10;;;;;;;;;;;;;;;11.34;79.85;100097.19;5133702;27;19931;-72
2021/08/03 00:04:41;;;;;;;;;;;;;;;11.31;80.52;100102.59;5133406;27;19935;-72
2021/08/03 00:07:09;;;;;;;;;;;;;;;11.39;79.70;100095.09;5133667;27;20296;-72
2021/08/03 00:09:36;;;;;;;;;;;;;;;11.23;81.21;100110.13;5133473;27;20293;-72
2021/08/03 00:12:02;;;;;;;;;;;;;;;11.40;79.84;100103.75;5133619;27;19933;-71
2021/08/03 00:14:29;;;;;;;;;;;;;;;11.22;80.31;100106.66;5133529;27;19924;-72
2021/08/03 00:16:57;;;;;;;;;;;;;;;11.25;80.60;100108.22;5133257;27;19923;-72
2021/08/03 00:19:25;;;;;;;;;;;;;;;11.28;81.25;100101.06;5133606;28;19930;-71
2021/08/03 00:21:51;;;;;;;;;;;;;;;11.15;81.31;100102.81;5133126;28;19976;-71
2021/08/03 00:24:22;;;;;;;;;;;;;;;11.25;81.47;100109.06;5133023;27;19929;-72
2021/08/03 00:26:49;;;;;;;;;;;;;;;11.22;82.59;100111.03;5133170;28;19931;-71
2021/08/03 00:29:15;;;;;;;;;;;;;;;11.19;82.70;100106.03;5133707;28;19923;-72
2021/08/03 00:31:43;;;;;;;;;;;;;;;11.06;82.74;100100.81;5133270;28;19934;-72
2021/08/03 00:34:10;;;;;;;;;;;;;;;11.14;82.65;100098.53;5133392;28;19923;-72
2021/08/03 00:36:36;;;;;;;;;;;;;;;11.08;83.73;100098.97;5133260;28;19930;-72
2021/08/03 00:39:03;;;;;;;;;;;;;;;10.97;83.91;100097.09;5133373;28;19928;-72
2021/08/03 00:41:36;;;;;;;;;;;;;;;10.92;84.25;100096.56;5133185;28;20404;-72
2021/08/03 00:44:03;;;;;;;;;;;;;;;10.79;85.44;100082.69;5133029;28;19927;-71
2021/08/03 00:46:29;;;;;;;;;;;;;;;10.90;83.79;100094.03;5133110;28;20289;-72
2021/08/03 00:48:56;;;;;;;;;;;;;;;10.65;85.82;100094.00;5133177;28;19931;-71
2021/08/03 00:51:22;;;;;;;;;;;;;;;10.86;84.97;100089.16;5133494;28;19934;-72
2021/08/03 00:53:49;;;;;;;;;;;;;;;10.96;83.64;100090.19;5132916;28;19923;-72
2021/08/03 00:56:16;;;;;;;;;;;;;;;10.81;85.17;100089.44;5133067;28;19923;-72
2021/08/03 00:58:44;;;;;;;;;;;;;;;10.76;85.32;100082.88;5133107;28;19927;-72
2021/08/03 01:01:11;;;;;;;;;;;;;;;10.79;85.26;100090.47;5133002;28;19930;-72
2021/08/03 01:03:37;;;;;;;;;;;;;;;10.82;84.76;100088.53;5132994;28;20010;-72
2021/08/03 01:06:07;;;;;;;;;;;;;;;10.81;85.09;100084.25;5132653;28;20370;-72
2021/08/03 01:08:47;;;;;;;;;;;;;;;10.78;84.97;100084.44;5133005;28;19923;-72
2021/08/03 01:11:17;;;;;;;;;;;;;;;10.75;85.97;100082.06;5133059;28;19997;-72
2021/08/03 01:13:50;;;;;;;;;;;;;;;10.80;85.04;100082.59;5132933;28;19930;-72
2021/08/03 01:16:21;;;;;;;;;;;;;;;10.82;85.38;100074.69;5133293;28;19924;-72
2021/08/03 01:18:55;;;;;;;;;;;;;;;10.62;86.58;100066.41;5132936;28;19923;-72
2021/08/03 01:21:33;;;;;;;;;;;;;;;10.83;85.38;100069.38;5132810;28;19924;-72
2021/08/03 01:24:08;;;;;;;;;;;;;;;10.72;85.15;100060.63;5133023;28;19992;-72
2021/08/03 01:26:49;;;;;;;;;;;;;;;10.56;86.98;100069.44;5132904;28;20438;-72
2021/08/03 01:29:18;;;;;;;;;;;;;;;10.72;85.74;100061.44;5111500;28;19930;-72
2021/08/03 01:31:47;;;;;;;;;;;;;;;10.57;86.41;100065.91;5133039;28;19924;-72
2021/08/03 01:34:15;;;;;;;;;;;;;;;10.57;85.81;100058.09;5133124;27;19923;-72
2021/08/03 01:36:44;;;;;;;;;;;;;;;10.64;85.71;100064.56;5136007;27;19924;-72
2021/08/03 01:39:11;;;;;;;;;;;;;;;10.44;86.91;100062.44;5136351;27;19930;-72
2021/08/03 01:41:38;;;;;;;;;;;;;;;10.62;85.85;100063.81;5136191;27;20014;-72
2021/08/03 01:44:05;;;;;;;;;;;;;;;10.65;86.04;100065.38;5136417;27;19969;-72
2021/08/03 01:46:35;;;;;;;;;;;;;;;10.54;86.44;100060.91;5136593;27;19923;-72
2021/08/03 01:49:02;;;;;;;;;;;;;;;10.61;85.53;100063.91;5136236;27;19946;-72
2021/08/03 01:51:30;;;;;;;;;;;;;;;10.63;84.89;100056.84;5136172;27;20391;-72
2021/08/03 01:53:57;;;;;;;;;;;;;;;10.51;85.71;100058.50;5136139;27;19946;-72
2021/08/03 01:56:25;;;;;;;;;;;;;;;10.53;85.55;100066.19;5136369;27;19923;-72
2021/08/03 01:58:52;;;;;;;;;;;;;;;10.64;85.17;100048.94;5136111;27;19946;-72
2021/08/03 02:01:20;;;;;;;;;;;;;;;10.50;85.47;100054.22;5135921;27;20297;-72
2021/08/03 02:03:49;;;;;;;;;;;;;;;10.49;85.82;100051.75;5135407;27;19924;-71
2021/08/03 02:06:16;;;;;;;;;;;;;;;10.60;84.64;100046.66;5135737;27;19924;-72
2021/08/03 02:08:44;;;;;;;;;;;;;;;10.49;85.40;100047.38;5136152;27;19928;-72
2021/08/03 02:11:10;;;;;;;;;;;;;;;10.51;85.54;100044.66;5135826;27;19968;-72
2021/08/03 02:13:37;;;;;;;;;;;;;;;10.43;85.58;100048.59;5135671;27;19923;-71
2021/08/03 02:16:04;;;;;;;;;;;;;;;10.50;84.92;100037.78;5135643;27;20040;-72
2021/08/03 02:18:30;;;;;;;;;;;;;;;10.38;86.67;100042.88;5135973;27;19946;-72
2021/08/03 02:20:59;;;;;;;;;;;;;;;10.52;85.28;100033.31;5135594;27;19923;-72
2021/08/03 02:23:25;;;;;;;;;;;;;;;10.41;85.50;100039.25;5135783;27;19976;-72
2021/08/03 02:25:52;;;;;;;;;;;;;;;10.42;85.58;100030.50;5135483;27;19924;-72
2021/08/03 02:28:19;;;;;;;;;;;;;;;10.29;86.06;100032.22;5135802;27;19930;-72
2021/08/03 02:30:47;;;;;;;;;;;;;;;10.41;85.54;100027.06;5135410;27;20385;-72
2021/08/03 02:33:17;;;;;;;;;;;;;;;10.17;87.01;100031.22;5135607;27;19976;-72
2021/08/03 02:35:46;;;;;;;;;;;;;;;10.17;87.37;100032.06;5135162;27;19927;-72
2021/08/03 02:38:17;;;;;;;;;;;;;;;10.33;86.24;100031.09;5135248;27;19941;-72
2021/08/03 02:40:43;;;;;;;;;;;;;;;10.38;85.85;100026.44;5135137;27;20408;-72
2021/08/03 02:43:11;;;;;;;;;;;;;;;10.41;85.80;100028.84;5135241;27;20293;-72
2021/08/03 02:45:40;;;;;;;;;;;;;;;10.32;86.51;100032.03;5135235;27;19924;-71
2021/08/03 02:48:12;;;;;;;;;;;;;;;10.32;86.04;100013.81;5134654;27;19923;-72
2021/08/03 02:50:39;;;;;;;;;;;;;;;10.23;86.56;100023.03;5135289;27;19960;-72
2021/08/03 02:53:07;;;;;;;;;;;;;;;10.30;85.48;100015.69;5134998;27;20249;-72
2021/08/03 02:55:39;;;;;;;;;;;;;;;10.42;84.43;100017.50;5135197;27;19924;-72
2021/08/03 02:58:08;;;;;;;;;;;;;;;10.28;86.41;100017.56;5134635;27;20297;-72
2021/08/03 03:00:36;;;;;;;;;;;;;;;10.19;86.57;100022.38;5134640;27;19924;-72
2021/08/03 03:03:07;;;;;;;;;;;;;;;10.30;85.75;100016.53;5134556;27;19934;-71
2021/08/03 03:05:36;;;;;;;;;;;;;;;10.34;85.53;100015.38;5134981;27;19934;-71
2021/08/03 03:08:06;;;;;;;;;;;;;;;10.25;85.80;100018.59;5134719;27;19923;-72
2021/08/03 03:10:34;;;;;;;;;;;;;;;10.23;85.71;100010.88;5134628;27;20400;-71
2021/08/03 03:13:04;;;;;;;;;;;;;;;10.16;87.03;100014.78;5134617;27;19927;-72
2021/08/03 03:15:31;;;;;;;;;;;;;;;10.24;85.59;99996.91;5134337;27;19923;-72
2021/08/03 03:17:58;;;;;;;;;;;;;;;10.32;85.11;100006.03;5134516;27;20285;-72
2021/08/03 03:20:25;;;;;;;;;;;;;;;10.12;84.70;100008.16;5134356;27;20319;-72
2021/08/03 03:22:54;;;;;;;;;;;;;;;9.98;87.15;100009.03;5134424;27;19931;-71
2021/08/03 03:25:23;;;;;;;;;;;;;;;9.99;87.25;100002.91;5134246;27;19930;-71
2021/08/03 03:27:53;;;;;;;;;;;;;;;10.09;85.76;99997.09;5134369;27;19923;-72
2021/08/03 03:30:21;;;;;;;;;;;;;;;10.27;85.61;99990.69;5134202;27;20385;-72
2021/08/03 03:32:48;;;;;;;;;;;;;;;10.06;85.19;99989.50;5133970;27;19931;-72
2021/08/03 03:35:16;;;;;;;;;;;;;;;10.22;84.97;99982.34;5134505;27;19930;-73
2021/08/03 03:37:44;;;;;;;;;;;;;;;10.10;85.52;99989.22;5134305;27;20001;-72
2021/08/03 03:40:11;;;;;;;;;;;;;;;10.11;85.48;99980.47;5133894;27;19927;-73
2021/08/03 03:42:39;;;;;;;;;;;;;;;10.18;85.64;99981.75;5134025;27;20497;-73
2021/08/03 03:45:06;;;;;;;;;;;;;;;10.14;85.38;99977.66;5133620;27;19931;-73
2021/08/03 03:47:36;;;;;;;;;;;;;;;10.12;86.20;99971.75;5133953;27;19923;-73
2021/08/03 03:50:06;;;;;;;;;;;;;;;10.09;85.99;99971.94;5133601;27;19933;-73
2021/08/03 03:52:35;;;;;;;;;;;;;;;10.06;85.92;99976.50;5134099;27;19924;-73
2021/08/03 03:55:03;;;;;;;;;;;;;;;10.19;84.70;99973.00;5133913;27;19930;-72
2021/08/03 03:57:30;;;;;;;;;;;;;;;10.01;85.73;99975.03;5133708;27;19931;-72
2021/08/03 03:59:58;;;;;;;;;;;;;;;10.05;85.22;99973.09;5133180;27;20277;-71
2021/08/03 04:02:26;;;;;;;;;;;;;;;10.11;85.49;99969.25;5133556;27;19930;-71
2021/08/03 04:04:57;;;;;;;;;;;;;;;10.03;86.23;99969.75;5133106;27;19931;-71
2021/08/03 04:07:23;;;;;;;;;;;;;;;9.95;85.95;99974.63;5133927;27;19927;-72
2021/08/03 04:10:01;;;;;;;;;;;;;;;10.03;84.67;99969.75;5133351;27;20400;-72
2021/08/03 04:12:27;;;;;;;;;;;;;;;9.91;86.27;99967.94;5133538;27;19923;-72
2021/08/03 04:14:54;;;;;;;;;;;;;;;10.06;84.94;99971.31;5133593;27;19927;-71
2021/08/03 04:17:20;;;;;;;;;;;;;;;9.88;85.86;99973.34;5133755;27;19930;-70
2021/08/03 04:19:48;;;;;;;;;;;;;;;9.87;85.60;99971.69;5133247;27;19923;-71
2021/08/03 04:22:16;;;;;;;;;;;;;;;9.77;86.36;99971.44;5133384;28;19930;-71
2021/08/03 04:24:42;;;;;;;;;;;;;;;9.80;86.29;99966.84;5133383;28;19931;-71
2021/08/03 04:27:09;;;;;;;;;;;;;;;9.96;84.90;99965.88;5133467;28;19928;-71
2021/08/03 04:29:35;;;;;;;;;;;;;;;9.85;85.41;99976.97;5133596;28;19923;-72
2021/08/03 04:32:02;;;;;;;;;;;;;;;9.98;84.68;99969.22;5133140;28;19923;-73
2021/08/03 04:34:31;;;;;;;;;;;;;;;10.05;84.83;99961.84;5133592;28;19923;-73
2021/08/03 04:36:58;;;;;;;;;;;;;;;9.97;84.82;99959.75;5133046;28;19939;-71
2021/08/03 04:39:26;;;;;;;;;;;;;;;9.94;84.81;99963.41;5133497;28;19923;-71
2021/08/03 04:41:52;;;;;;;;;;;;;;;9.96;84.61;99965.88;5133244;28;19923;-71
2021/08/03 04:44:19;;;;;;;;;;;;;;;10.00;83.94;99962.16;5133566;28;19923;-71
2021/08/03 04:46:45;;;;;;;;;;;;;;;9.96;84.04;99953.72;5133334;28;19923;-71
2021/08/03 04:49:12;;;;;;;;;;;;;;;9.94;83.98;99942.59;5133469;28;19924;-72
2021/08/03 04:51:39;;;;;;;;;;;;;;;9.77;85.32;99953.25;5133113;28;19923;-71
2021/08/03 04:54:07;;;;;;;;;;;;;;;9.72;85.89;99955.31;5133256;28;20247;-72
2021/08/03 04:56:35;;;;;;;;;;;;;;;9.87;84.05;99950.91;5133132;28;19962;-71
2021/08/03 04:59:02;;;;;;;;;;;;;;;9.85;83.91;99948.38;5132791;28;19923;-73
2021/08/03 05:01:28;;;;;;;;;;;;;;;9.69;85.43;99952.91;5132894;28;19923;-74
2021/08/03 05:03:55;;;;;;;;;;;;;;;9.85;84.04;99948.38;5132775;28;19924;-74
2021/08/03 05:06:21;;;;;;;;;;;;;;;9.89;84.24;99946.41;5131678;28;19924;-73
2021/08/03 05:08:48;;;;;;;;;;;;;;;9.88;85.18;99955.16;5130744;27;19931;-74
2021/08/03 05:11:15;;;;;;;;;;;;;;;9.69;85.67;99953.75;5134865;27;20396;-74
2021/08/03 05:13:43;;;;;;;;;;;;;;;9.70;85.95;99947.59;5135266;27;19930;-74
2021/08/03 05:16:09;;;;;;;;;;;;;;;9.72;84.35;99944.91;5134934;27;19930;-74
2021/08/03 05:18:36;;;;;;;;;;;;;;;9.74;84.89;99949.09;5134788;27;19924;-74
2021/08/03 05:21:02;;;;;;;;;;;;;;;9.70;85.05;99945.00;5135748;27;20262;-74
2021/08/03 05:23:29;;;;;;;;;;;;;;;9.67;85.55;99944.38;5137085;27;19930;-72
2021/08/03 05:25:55;;;;;;;;;;;;;;;9.78;84.54;99945.34;5136419;27;19931;-74
2021/08/03 05:28:22;;;;;;;;;;;;;;;9.74;84.83;99946.47;5136674;27;19923;-74
2021/08/03 05:30:50;;;;;;;;;;;;;;;9.69;84.72;99945.94;5136569;27;19924;-74
2021/08/03 05:33:17;;;;;;;;;;;;;;;9.75;85.13;99947.31;5136480;27;20367;-74
2021/08/03 05:35:43;;;;;;;;;;;;;;;9.75;84.40;99945.53;5136683;27;19924;-74
2021/08/03 05:38:10;;;;;;;;;;;;;;;9.84;85.15;99949.31;5136421;27;20399;-73
2021/08/03 05:40:36;;;;;;;;;;;;;;;9.82;84.82;99946.81;5136682;27;19923;-73
2021/08/03 05:43:03;;;;;;;;;;;;;;;9.73;85.23;99944.81;5135910;27;19923;-74
2021/08/03 05:45:30;;;;;;;;;;;;;;;9.78;84.85;99937.53;5136528;27;19924;-74
2021/08/03 05:47:58;;;;;;;;;;;;;;;9.67;86.13;99939.19;5135949;27;19923;-74
2021/08/03 05:50:24;;;;;;;;;;;;;;;9.69;86.15;99940.75;5136468;27;19928;-74
2021/08/03 05:52:51;;;;;;;;;;;;;;;9.69;86.03;99940.75;5135936;27;19924;-74
2021/08/03 05:55:18;;;;;;;;;;;;;;;9.62;86.98;99936.88;5136417;27;19924;-74
2021/08/03 05:57:44;;;;;;;;;;;;;;;9.92;85.41;99928.88;5136130;27;19935;-74
2021/08/03 06:00:12;;;;;;;;;;;;;;;9.82;86.79;99933.81;5136251;27;20184;-73
2021/08/03 06:02:38;;;;;;;;;;;;;;;9.78;87.56;99924.56;5136209;27;19927;-73
2021/08/03 06:05:07;;;;;;;;;;;;;;;9.98;85.78;99923.25;5135461;27;19928;-74
2021/08/03 06:07:38;;;;;;;;;;;;;;;10.03;85.88;99925.56;5136087;27;20289;-73
2021/08/03 06:10:05;;;;;;;;;;;;;;;9.99;85.97;99924.09;5135640;27;19931;-73
2021/08/03 06:12:34;;;;;;;;;;;;;;;10.24;85.24;99918.94;5135675;27;19931;-73
2021/08/03 06:15:02;;;;;;;;;;;;;;;10.25;85.61;99914.59;5135495;27;19924;-74
2021/08/03 06:17:33;;;;;;;;;;;;;;;10.23;84.67;99914.69;5135988;27;19956;-74
2021/08/03 06:20:00;;;;;;;;;;;;;;;10.17;85.83;99922.03;5135741;27;19923;-74
2021/08/03 06:22:28;;;;;;;;;;;;;;;10.29;86.08;99918.66;5134660;27;20381;-74
2021/08/03 06:24:55;;;;;;;;;;;;;;;10.11;85.16;99918.09;5135265;27;19927;-74
2021/08/03 06:27:21;;;;;;;;;;;;;;;10.22;85.25;99919.97;5135558;27;19923;-74
2021/08/03 06:29:48;;;;;;;;;;;;;;;10.28;85.27;99922.22;5135177;27;19931;-74
2021/08/03 06:32:15;;;;;;;;;;;;;;;10.44;85.08;99922.00;5135294;27;20390;-74
2021/08/03 06:34:43;;;;;;;;;;;;;;;10.50;84.47;99915.53;5135235;27;20456;-74
2021/08/03 06:37:10;;;;;;;;;;;;;;;10.25;85.70;99912.81;5135326;27;20422;-75
2021/08/03 06:39:38;;;;;;;;;;;;;;;10.31;86.54;99918.56;5135511;27;19930;-74
2021/08/03 06:42:07;;;;;;;;;;;;;;;10.35;85.84;99910.47;5134853;27;19927;-74
2021/08/03 06:44:36;;;;;;;;;;;;;;;10.53;85.67;99917.94;5134915;27;19946;-74
2021/08/03 06:47:02;;;;;;;;;;;;;;;10.43;85.83;99908.16;5134769;27;20401;-74
2021/08/03 06:49:32;;;;;;;;;;;;;;;10.63;85.34;99908.56;5134934;27;20290;-74
2021/08/03 06:51:59;;;;;;;;;;;;;;;10.50;85.81;99908.56;5134609;27;19923;-74
2021/08/03 06:54:28;;;;;;;;;;;;;;;10.52;86.37;99905.88;5134812;27;20426;-74
2021/08/03 06:57:04;;;;;;;;;;;;;;;10.41;86.94;99904.84;5134977;27;19949;-74
2021/08/03 06:59:34;;;;;;;;;;;;;;;10.46;86.22;99897.56;5134763;27;19924;-74
2021/08/03 07:02:05;;;;;;;;;;;;;;;10.55;84.78;99897.84;5134461;27;19924;-74
2021/08/03 07:04:36;;;;;;;;;;;;;;;10.54;85.45;99894.44;5134465;27;19924;-74
2021/08/03 07:07:03;;;;;;;;;;;;;;;10.57;85.42;99896.00;5134283;27;20314;-74
2021/08/03 07:09:30;;;;;;;;;;;;;;;10.67;85.32;99894.41;5134946;27;19923;-74
2021/08/03 07:11:58;;;;;;;;;;;;;;;10.63;85.86;99888.56;5134612;27;19976;-74
2021/08/03 07:14:25;;;;;;;;;;;;;;;10.65;85.88;99893.69;5134525;27;20266;-74
2021/08/03 07:16:53;;;;;;;;;;;;;;;10.61;84.99;99895.69;5134578;27;19931;-73
2021/08/03 07:19:21;;;;;;;;;;;;;;;10.79;84.35;99887.53;5134372;27;20342;-74
2021/08/03 07:21:48;;;;;;;;;;;;;;;10.67;84.05;99884.00;5134348;27;19930;-74
2021/08/03 07:24:16;;;;;;;;;;;;;;;10.59;84.01;99884.53;5134713;27;20157;-74
2021/08/03 07:26:43;;;;;;;;;;;;;;;10.55;84.36;99884.84;5134255;27;19930;-74
2021/08/03 07:29:11;;;;;;;;;;;;;;;10.93;83.09;99879.59;5134345;27;19923;-73
2021/08/03 07:31:41;;;;;;;;;;;;;;;10.92;81.99;99875.34;5134824;27;19923;-74
2021/08/03 07:34:08;;;;;;;;;;;;;;;10.87;82.96;99883.47;5133301;27;19968;-74
2021/08/03 07:36:35;;;;;;;;;;;;;;;10.84;83.47;99875.03;5134169;27;20281;-73
2021/08/03 07:39:04;;;;;;;;;;;;;;;11.02;82.80;99871.16;5134137;27;19923;-74
2021/08/03 07:41:31;;;;;;;;;;;;;;;11.15;81.59;99863.28;5133823;27;20022;-74
2021/08/03 07:43:58;;;;;;;;;;;;;;;11.30;83.16;99877.81;5133768;27;19923;-74
2021/08/03 07:46:26;;;;;;;;;;;;;;;11.48;79.57;99859.19;5133959;27;20385;-74
2021/08/03 07:48:53;;;;;;;;;;;;;;;11.42;81.63;99859.63;5133942;27;19924;-74
2021/08/03 07:51:20;;;;;;;;;;;;;;;11.43;81.78;99854.31;5133899;27;19923;-74
2021/08/03 07:53:47;;;;;;;;;;;;;;;11.49;81.11;99856.47;5133805;27;19934;-74
2021/08/03 07:56:14;;;;;;;;;;;;;;;11.70;81.62;99856.66;5134138;27;19923;-74
2021/08/03 07:58:41;;;;;;;;;;;;;;;11.83;79.79;99853.16;5134083;27;20001;-74
2021/08/03 08:01:08;;;;;;;;;;;;;;;11.85;79.25;99851.28;5133811;27;19924;-74
2021/08/03 08:03:37;;;;;;;;;;;;;;;11.99;78.04;99849.31;5133368;27;19923;-73
2021/08/03 08:06:04;;;;;;;;;;;;;;;11.96;78.58;99844.31;5133505;27;19923;-74
2021/08/03 08:08:31;;;;;;;;;;;;;;;12.05;76.87;99852.38;5133867;27;19924;-74
2021/08/03 08:10:57;;;;;;;;;;;;;;;11.95;78.09;99841.84;5133670;27;19931;-74
2021/08/03 08:13:24;;;;;;;;;;;;;;;12.18;77.19;99846.16;5133708;27;19923;-74
2021/08/03 08:15:51;;;;;;;;;;;;;;;12.11;77.38;99844.13;5133315;27;20176;-74
2021/08/03 08:18:18;;;;;;;;;;;;;;;12.08;77.30;99847.78;5133737;27;19923;-74
2021/08/03 08:20:46;;;;;;;;;;;;;;;12.19;77.85;99841.75;5133525;27;19923;-74
2021/08/03 08:23:14;;;;;;;;;;;;;;;12.17;76.01;99844.47;5133292;27;20396;-74
2021/08/03 08:25:40;;;;;;;;;;;;;;;12.41;74.76;99841.78;5133458;28;19931;-74
2021/08/03 08:28:07;;;;;;;;;;;;;;;12.39;75.58;99835.03;5133446;28;19923;-74
2021/08/03 08:30:34;;;;;;;;;;;;;;;12.47;74.92;99834.44;5133675;28;19931;-73
2021/08/03 08:33:00;;;;;;;;;;;;;;;12.49;75.00;99832.53;5133018;28;19931;-73
2021/08/03 08:35:27;;;;;;;;;;;;;;;12.56;76.21;99834.56;5133595;28;19930;-74
2021/08/03 08:37:55;;;;;;;;;;;;;;;12.52;74.46;99840.94;5133021;28;19924;-73
2021/08/03 08:40:22;;;;;;;;;;;;;;;12.62;74.11;99836.66;5133357;28;19949;-74
2021/08/03 08:42:48;;;;;;;;;;;;;;;12.63;73.21;99827.06;5132816;28;19931;-74
2021/08/03 08:45:15;;;;;;;;;;;;;;;12.56;73.13;99828.47;5135447;27;19930;-73
2021/08/03 08:47:43;;;;;;;;;;;;;;;12.39;73.67;99824.59;5137527;27;19924;-73
2021/08/03 08:50:10;;;;;;;;;;;;;;;12.54;73.89;99812.13;5137483;27;19935;-73
2021/08/03 08:52:37;;;;;;;;;;;;;;;12.45;74.72;99829.31;5137258;27;19931;-73
2021/08/03 08:55:07;;;;;;;;;;;;;;;12.57;73.86;99828.38;5136940;27;20377;-74
2021/08/03 08:57:34;;;;;;;;;;;;;;;12.55;72.86;99819.81;5137557;27;19923;-74
2021/08/03 09:00:00;;;;;;;;;;;;;;;12.59;73.34;99823.06;5137240;27;20000;-74
2021/08/03 09:02:49;;;;;;;;;;;;;;;12.70;74.70;99819.59;5136974;27;20274;-74
2021/08/03 09:05:17;;;;;;;;;;;;;;;12.68;72.95;99821.47;5129369;27;19927;-73
2021/08/03 09:07:48;;;;;;;;;;;;;;;12.74;73.08;99824.47;5137304;27;19929;-74
2021/08/03 09:10:28;;;;;;;;;;;;;;;12.86;71.98;99825.25;5137314;27;19925;-74
2021/08/03 09:12:59;;;;;;;;;;;;;;;12.76;71.76;99825.13;5137041;27;19923;-74
2021/08/03 09:15:25;;;;;;;;;;;;;;;12.68;72.24;99827.53;5136887;27;19927;-74
2021/08/03 09:17:52;;;;;;;;;;;;;;;12.83;71.10;99828.09;5136788;27;19930;-74
2021/08/03 09:20:19;;;;;;;;;;;;;;;12.95;71.65;99823.72;5137034;27;19930;-74
2021/08/03 09:22:47;;;;;;;;;;;;;;;13.03;71.10;99823.91;5136871;27;19923;-74
2021/08/03 09:25:15;;;;;;;;;;;;;;;13.06;71.49;99829.72;5136580;27;19923;-74
2021/08/03 09:27:44;;;;;;;;;;;;;;;13.03;71.68;99814.28;5136962;27;19946;-74
2021/08/03 09:30:27;;;;;;;;;;;;;;;13.10;71.65;99821.63;5136831;27;20069;-73
2021/08/03 09:32:54;;;;;;;;;;;;;;;13.21;71.34;99819.00;5136392;27;20335;-73
2021/08/03 09:35:21;;;;;;;;;;;;;;;13.31;70.08;99821.69;5136660;27;19931;-73
2021/08/03 09:37:48;;;;;;;;;;;;;;;13.18;70.61;99811.38;5136486;27;19934;-73
2021/08/03 09:40:22;;;;;;;;;;;;;;;13.36;69.84;99814.31;5136377;27;19924;-73
2021/08/03 09:43:04;;;;;;;;;;;;;;;13.32;69.73;99811.16;5136453;27;19923;-73
2021/08/03 09:45:31;;;;;;;;;;;;;;;13.35;69.48;99817.91;5136095;27;19923;-73
2021/08/03 09:48:08;;;;;;;;;;;;;;;13.50;68.55;99814.88;5136649;27;19924;-73
2021/08/03 09:50:49;;;;;;;;;;;;;;;13.53;69.01;99812.97;5136556;27;19980;-73
2021/08/03 09:53:35;;;;;;;;;;;;;;;13.41;68.56;99818.25;5136109;27;20391;-73
2021/08/03 09:56:01;;;;;;;;;;;;;;;13.53;69.39;99810.34;5135111;27;19929;-73
2021/08/03 09:58:31;;;;;;;;;;;;;;;13.60;68.32;99808.88;5136244;27;19928;-73
2021/08/03 10:00:58;;;;;;;;;;;;;;;13.50;68.51;99809.63;5135780;27;19928;-73
2021/08/03 10:03:25;;;;;;;;;;;;;;;13.60;67.84;99807.09;5135773;27;19930;-72
2021/08/03 10:05:53;;;;;;;;;;;;;;;13.68;68.07;99807.28;5135577;27;20297;-72
2021/08/03 10:08:19;;;;;;;;;;;;;;;13.66;67.36;99817.03;5135839;27;19924;-73
2021/08/03 10:10:46;;;;;;;;;;;;;;;13.69;66.27;99808.09;5136046;27;19923;-72
2021/08/03 10:13:12;;;;;;;;;;;;;;;13.64;66.70;99811.13;5136089;27;19924;-73
2021/08/03 10:15:41;;;;;;;;;;;;;;;13.72;67.04;99807.88;5136082;27;20430;-73
2021/08/03 10:18:07;;;;;;;;;;;;;;;13.96;63.87;99809.41;5135707;27;19928;-73
2021/08/03 10:20:40;;;;;;;;;;;;;;;14.06;63.38;99815.50;5135739;27;19923;-72
2021/08/03 10:23:07;;;;;;;;;;;;;;;14.00;63.68;99809.00;5135577;27;19928;-72
2021/08/03 10:25:37;;;;;;;;;;;;;;;14.01;63.80;99802.81;5135621;27;20006;-73
2021/08/03 10:28:17;;;;;;;;;;;;;;;13.96;63.25;99796.31;5135215;27;20415;-74
2021/08/03 10:30:47;;;;;;;;;;;;;;;13.98;63.17;99800.47;5135700;27;19924;-73
2021/08/03 10:33:29;;;;;;;;;;;;;;;14.14;64.21;99806.03;5135415;27;20381;-73
2021/08/03 10:35:57;;;;;;;;;;;;;;;14.13;63.25;99804.41;5134286;27;19923;-73
2021/08/03 10:38:28;;;;;;;;;;;;;;;14.25;63.61;99806.91;5135727;27;19923;-73
2021/08/03 10:41:00;;;;;;;;;;;;;;;14.21;62.93;99797.69;5135364;27;19923;-73
2021/08/03 10:43:36;;;;;;;;;;;;;;;13.86;64.85;99793.66;5135059;27;19924;-73
2021/08/03 10:46:18;;;;;;;;;;;;;;;14.14;61.92;99786.91;5134822;27;19923;-73
2021/08/03 10:48:47;;;;;;;;;;;;;;;14.05;62.54;99796.38;5134098;27;19931;-73
2021/08/03 10:51:31;;;;;;;;;;;;;;;14.25;61.33;99789.44;5135317;27;19967;-73
2021/08/03 10:54:01;;;;;;;;;;;;;;;14.24;61.26;99785.16;5134171;27;19934;-73
2021/08/03 10:56:28;;;;;;;;;;;;;;;14.20;60.77;99789.00;5134910;27;19933;-73
2021/08/03 10:59:23;;;;;;;;;;;;;;;14.27;60.36;99781.47;5134813;27;19923;-73
2021/08/03 11:01:50;;;;;;;;;;;;;;;14.28;60.10;99789.19;5134494;27;20497;-73
2021/08/03 11:04:31;;;;;;;;;;;;;;;14.43;58.63;99783.56;5134686;27;19923;-72
2021/08/03 11:07:19;;;;;;;;;;;;;;;14.43;60.14;99788.81;5133392;27;20416;-73
2021/08/03 11:09:45;;;;;;;;;;;;;;;14.42;59.67;99781.94;5134549;27;20270;-73
2021/08/03 11:12:33;;;;;;;;;;;;;;;14.48;58.78;99789.25;5134237;27;20201;-74
2021/08/03 11:14:59;;;;;;;;;;;;;;;14.37;58.62;99798.03;5134339;27;19923;-73
2021/08/03 11:17:43;;;;;;;;;;;;;;;14.37;58.71;99793.63;5134463;27;19930;-73
2021/08/03 11:20:31;;;;;;;;;;;;;;;14.51;57.83;99797.66;5133450;27;20376;-73
2021/08/03 11:22:59;;;;;;;;;;;;;;;14.47;57.25;99788.41;5133755;27;19927;-73
2021/08/03 11:25:27;;;;;;;;;;;;;;;14.36;58.43;99791.97;5134388;27;19930;-73
2021/08/03 11:27:54;;;;;;;;;;;;;;;14.33;58.68;99799.22;5134253;27;19930;-73
2021/08/03 11:30:20;;;;;;;;;;;;;;;14.43;56.77;99791.44;5134204;27;20396;-74
2021/08/03 11:32:48;;;;;;;;;;;;;;;14.49;56.87;99794.34;5133937;27;19923;-73
2021/08/03 11:35:25;;;;;;;;;;;;;;;14.61;56.79;99792.47;5134132;27;20278;-73
2021/08/03 11:37:52;;;;;;;;;;;;;;;14.66;56.47;99797.31;5133719;27;19976;-73
2021/08/03 11:40:20;;;;;;;;;;;;;;;14.69;56.25;99789.19;5134284;27;19928;-74
2021/08/03 11:42:47;;;;;;;;;;;;;;;14.67;56.85;99796.34;5133833;27;19930;-73
2021/08/03 11:45:15;;;;;;;;;;;;;;;14.83;55.95;99793.22;5133796;27;19924;-74
2021/08/03 11:47:46;;;;;;;;;;;;;;;14.77;56.93;99790.19;5133859;27;20313;-74
2021/08/03 11:50:14;;;;;;;;;;;;;;;14.91;55.41;99793.38;5134058;27;19923;-74
2021/08/03 11:52:40;;;;;;;;;;;;;;;14.88;55.64;99804.97;5134150;27;19930;-73
2021/08/03 11:55:07;;;;;;;;;;;;;;;14.86;55.22;99799.03;5133592;27;19931;-73
2021/08/03 11:57:37;;;;;;;;;;;;;;;14.86;53.98;99800.81;5134010;27;19923;-73
2021/08/03 12:00:11;;;;;;;;;;;;;;;14.79;55.42;99805.75;5133684;27;19929;-73
2021/08/03 12:02:38;;;;;;;;;;;;;;;14.85;56.17;99805.22;5133665;27;20289;-73
2021/08/03 12:05:09;;;;;;;;;;;;;;;14.81;55.14;99802.03;5133145;27;20370;-73
2021/08/03 12:07:37;;;;;;;;;;;;;;;14.96;53.46;99804.28;5133863;27;19923;-73
2021/08/03 12:10:04;;;;;;;;;;;;;;;14.90;54.78;99797.78;5133588;27;19956;-73
2021/08/03 12:12:31;;;;;;;;;;;;;;;14.94;53.39;99799.16;5133550;27;20286;-73
2021/08/03 12:15:07;;;;;;;;;;;;;;;15.03;53.38;99806.22;5133327;27;19931;-73
2021/08/03 12:17:33;;;;;;;;;;;;;;;15.03;52.97;99805.41;5133827;27;19923;-73
2021/08/03 12:20:04;;;;;;;;;;;;;;;15.03;53.17;99811.47;5132978;27;20266;-74
2021/08/03 12:22:32;;;;;;;;;;;;;;;15.09;52.60;99806.63;5133678;27;19931;-73
2021/08/03 12:25:00;;;;;;;;;;;;;;;15.11;51.84;99804.72;5133132;27;20296;-74
2021/08/03 12:27:26;;;;;;;;;;;;;;;15.19;52.61;99807.47;5133428;28;19934;-73
2021/08/03 12:29:53;;;;;;;;;;;;;;;15.15;52.46;99811.31;5133333;28;19924;-73
2021/08/03 12:32:34;;;;;;;;;;;;;;;15.14;51.96;99818.38;5133299;28;19924;-73
2021/08/03 12:35:10;;;;;;;;;;;;;;;15.16;50.95;99808.56;5133049;28;19924;-74
2021/08/03 12:37:37;;;;;;;;;;;;;;;15.13;51.34;99821.09;5133330;28;19923;-73
2021/08/03 12:40:04;;;;;;;;;;;;;;;15.08;50.98;99818.06;5133085;28;20313;-73
2021/08/03 12:42:34;;;;;;;;;;;;;;;15.19;50.32;99820.56;5133592;28;19931;-73
2021/08/03 12:45:12;;;;;;;;;;;;;;;15.28;49.54;99829.41;5132946;28;20292;-74
2021/08/03 12:47:51;;;;;;;;;;;;;;;15.29;49.67;99825.84;5133668;28;19928;-73
2021/08/03 12:50:19;;;;;;;;;;;;;;;15.40;48.94;99823.88;5133065;28;19927;-73
2021/08/03 12:52:49;;;;;;;;;;;;;;;15.36;49.04;99826.91;5133018;28;19924;-74
2021/08/03 12:55:24;;;;;;;;;;;;;;;15.48;49.94;99828.44;5133485;28;19930;-74